Aviation Digital Data Service (ADDS)

Output produced by METARs form (1439 UTC 10 December 2016)
found at http://aviationweather.gov/adds/metars/
 
KDTW 101120Z 1012/1118 24009KT P6SM -SHSN SCT025 OVC050 
     FM101500 24012KT 6SM -SHSN BKN035 BKN050 
     TEMPO 1015/1018 2SM -SHSN BKN025 
     FM101900 23012KT P6SM -SHSN BKN050 
     FM110000 22008KT P6SM SCT035 OVC120 
     FM110600 21005KT 3SM -SN BKN028 OVC040 
     FM111200 16008KT 2SM -SN SCT015 OVC028